Time;durP1;ratioP1;P1;durP2;ratioP2;P2;SDS_P1;SDS_P2;PMS_P1;PMS_P2;Temp;Humidity;BMP_temperature;BMP_pressure;BME280_temperature;BME280_humidity;BME280_pressure;Samples;Min_cycle;Max_cycle;Signal;HPM_P1;HPM_P2
2021/11/12 00:12:59;;;;;;;46.88;32.08;;;10.10;99.30;;;;;;5032013;28;20049;-85
2021/11/12 00:15:24;;;;;;;45.80;30.83;;;10.10;99.30;;;;;;5033456;28;20052;-85
2021/11/12 00:17:52;;;;;;;36.63;26.75;;;10.10;99.30;;;;;;5031507;28;20397;-85
2021/11/12 00:20:18;;;;;;;40.65;27.95;;;10.10;99.30;;;;;;5014817;28;20506;-84
2021/11/12 00:22:44;;;;;;;44.40;28.85;;;10.10;99.30;;;;;;5015117;28;20120;-84
2021/11/12 00:25:10;;;;;;;39.53;27.55;;;10.10;99.40;;;;;;5014174;28;20052;-84
2021/11/12 00:27:37;;;;;;;39.25;27.52;;;10.10;99.50;;;;;;5015363;28;20037;-84
2021/11/12 00:30:16;;;;;;;33.75;26.75;;;10.10;99.50;;;;;;5015155;28;20054;-84
2021/11/12 00:35:22;;;;;;;39.72;27.92;;;10.10;99.60;;;;;;5015460;28;20045;-85
2021/11/12 00:37:54;;;;;;;35.72;26.98;;;10.10;99.60;;;;;;5015008;28;20041;-84
2021/11/12 00:40:36;;;;;;;42.45;30.30;;;10.10;99.60;;;;;;5015031;28;20184;-84
2021/11/12 00:45:34;;;;;;;35.67;26.77;;;10.10;99.60;;;;;;5019095;28;20148;-84
2021/11/12 00:48:13;;;;;;;38.05;27.98;;;10.10;99.60;;;;;;5017245;28;20107;-84
2021/11/12 00:50:57;;;;;;;38.33;27.00;;;10.10;99.70;;;;;;5005790;28;20052;-84
2021/11/12 00:55:48;;;;;;;39.67;27.25;;;10.10;99.20;;;;;;5016922;28;19928;-84
2021/11/12 00:58:15;;;;;;;38.42;27.17;;;10.10;99.70;;;;;;5017366;28;20033;-84
2021/11/12 01:00:45;;;;;;;37.03;26.10;;;10.10;99.60;;;;;;5015765;28;20091;-84
2021/11/12 01:03:11;;;;;;;36.35;27.13;;;10.10;99.70;;;;;;5016462;28;20053;-85
2021/11/12 01:05:37;;;;;;;33.28;24.80;;;10.10;99.60;;;;;;5016931;28;20065;-84
2021/11/12 01:08:03;;;;;;;37.20;27.63;;;10.10;99.50;;;;;;5016246;28;20056;-84
2021/11/12 01:10:30;;;;;;;36.40;26.15;;;10.10;99.50;;;;;;5017481;28;20107;-85
2021/11/12 01:12:58;;;;;;;41.15;29.50;;;10.10;99.60;;;;;;5016887;28;20048;-85
2021/11/12 01:15:24;;;;;;;33.92;25.80;;;10.10;99.50;;;;;;5016104;28;20041;-85
2021/11/12 01:17:51;;;;;;;36.00;25.38;;;10.10;99.40;;;;;;5016349;28;20073;-85
2021/11/12 01:20:18;;;;;;;37.60;26.85;;;10.10;99.40;;;;;;5016469;28;20094;-84
2021/11/12 01:22:44;;;;;;;36.10;25.80;;;10.10;99.40;;;;;;5015365;28;20056;-85
2021/11/12 01:25:13;;;;;;;34.08;26.20;;;10.10;99.40;;;;;;5016206;28;20108;-84
2021/11/12 01:27:39;;;;;;;32.78;25.08;;;10.10;99.40;;;;;;5016337;28;20041;-84
2021/11/12 01:30:06;;;;;;;33.53;25.38;;;10.10;99.40;;;;;;5015595;28;20439;-84
2021/11/12 01:32:32;;;;;;;36.33;26.77;;;10.10;99.40;;;;;;5016743;28;20072;-84
2021/11/12 01:35:00;;;;;;;34.78;26.02;;;10.10;99.40;;;;;;5016809;28;20096;-86
2021/11/12 01:37:27;;;;;;;41.83;28.67;;;10.10;99.30;;;;;;5016331;28;20049;-85
2021/11/12 01:39:57;;;;;;;35.75;26.13;;;10.10;99.20;;;;;;5017031;28;20045;-84
2021/11/12 01:42:28;;;;;;;33.47;24.98;;;10.10;99.30;;;;;;5016332;28;20073;-84
2021/11/12 01:45:04;;;;;;;37.45;27.92;;;10.10;99.30;;;;;;5016728;28;20124;-84
2021/11/12 01:50:05;;;;;;;32.97;24.95;;;10.00;99.20;;;;;;4980236;28;1033538;-85
2021/11/12 01:52:36;;;;;;;35.80;25.20;;;10.00;99.20;;;;;;4997650;28;20053;-84
2021/11/12 01:55:07;;;;;;;33.40;25.08;;;10.00;99.10;;;;;;5009692;28;20053;-85
2021/11/12 02:00:21;;;;;;;37.97;26.98;;;10.00;99.20;;;;;;5016222;28;20107;-85
2021/11/12 02:02:47;;;;;;;35.28;25.45;;;10.10;99.30;;;;;;5017262;28;20042;-84
2021/11/12 02:05:13;;;;;;;38.00;27.55;;;10.00;99.50;;;;;;5015941;28;20049;-85
2021/11/12 02:07:39;;;;;;;34.33;26.17;;;10.00;99.20;;;;;;5017257;28;20060;-85
2021/11/12 02:10:08;;;;;;;33.70;24.33;;;10.00;99.20;;;;;;5015711;28;20477;-86
2021/11/12 02:12:45;;;;;;;36.53;25.13;;;10.00;99.30;;;;;;5015985;28;20037;-87
2021/11/12 02:15:11;;;;;;;36.25;26.42;;;10.00;99.30;;;;;;5016694;28;20045;-86
2021/11/12 02:17:39;;;;;;;31.38;24.08;;;10.00;99.30;;;;;;5015927;28;20054;-86
2021/11/12 02:20:12;;;;;;;33.80;25.17;;;10.00;99.30;;;;;;5000349;28;20057;-86
2021/11/12 02:22:38;;;;;;;34.13;26.08;;;10.00;99.30;;;;;;5016925;28;20058;-86
2021/11/12 02:25:21;;;;;;;40.72;28.20;;;10.00;99.30;;;;;;5015782;28;20045;-84
2021/11/12 02:27:56;;;;;;;38.97;26.83;;;10.00;99.30;;;;;;5016564;28;20038;-84
2021/11/12 02:30:24;;;;;;;34.72;25.58;;;10.00;99.30;;;;;;5011113;28;20045;-84
2021/11/12 02:33:17;;;;;;;38.10;25.52;;;10.00;99.20;;;;;;5015006;28;20045;-85
2021/11/12 02:36:01;;;;;;;34.60;24.42;;;10.00;99.00;;;;;;5013062;28;20497;-84
2021/11/12 02:38:29;;;;;;;35.00;24.30;;;10.00;99.10;;;;;;5016626;28;20052;-83
2021/11/12 02:40:55;;;;;;;35.13;25.10;;;10.00;99.20;;;;;;5016044;28;20115;-85
2021/11/12 02:43:21;;;;;;;32.65;25.63;;;10.00;99.10;;;;;;5015765;28;20050;-84
2021/11/12 02:45:46;;;;;;;37.13;26.33;;;10.00;99.30;;;;;;5015601;28;20038;-84
2021/11/12 02:48:13;;;;;;;31.77;23.70;;;10.00;99.30;;;;;;5015708;28;20508;-85
2021/11/12 02:50:40;;;;;;;30.15;23.45;;;10.00;99.30;;;;;;5016366;28;20056;-84
2021/11/12 02:53:12;;;;;;;31.13;24.00;;;9.90;99.30;;;;;;5015152;28;20061;-85
2021/11/12 02:55:38;;;;;;;31.48;23.35;;;10.00;99.30;;;;;;5016511;28;20056;-84
2021/11/12 02:58:04;;;;;;;28.77;22.27;;;10.00;99.30;;;;;;4999376;28;20029;-85
2021/11/12 03:00:30;;;;;;;34.90;25.45;;;10.00;99.20;;;;;;5014649;28;20077;-84
2021/11/12 03:02:56;;;;;;;32.13;23.83;;;10.00;99.20;;;;;;5014868;28;20025;-84
2021/11/12 03:05:22;;;;;;;29.25;22.67;;;10.00;99.30;;;;;;5016078;28;20099;-85
2021/11/12 03:07:48;;;;;;;35.70;25.17;;;10.00;99.20;;;;;;5015865;28;20421;-84
2021/11/12 03:10:14;;;;;;;31.45;23.42;;;10.00;99.10;;;;;;5016389;28;20045;-85
2021/11/12 03:12:40;;;;;;;39.45;26.52;;;10.00;99.10;;;;;;5015884;28;20053;-85
2021/11/12 03:15:07;;;;;;;29.60;22.88;;;10.00;99.00;;;;;;5015434;28;20079;-85
2021/11/12 03:17:35;;;;;;;29.50;23.10;;;9.90;99.00;;;;;;5015455;28;20084;-85
2021/11/12 03:20:01;;;;;;;30.38;23.30;;;9.90;98.90;;;;;;4996412;28;20052;-86
2021/11/12 03:22:33;;;;;;;32.30;24.42;;;9.90;98.90;;;;;;5009006;28;20187;-85
2021/11/12 03:25:05;;;;;;;31.52;23.25;;;9.90;98.90;;;;;;5015786;28;20080;-86
2021/11/12 03:27:39;;;;;;;39.03;24.70;;;9.90;98.90;;;;;;5016152;28;20132;-85
2021/11/12 03:47:14;;;;;;;38.88;26.00;;;9.90;99.10;;;;;;5032842;28;20053;-85
2021/11/12 04:00:47;;;;;;;33.17;23.77;;;9.80;99.10;;;;;;5032970;28;20057;-86
2021/11/12 04:03:20;;;;;;;33.13;24.15;;;9.80;99.20;;;;;;5012545;28;20049;-86
2021/11/12 04:17:22;;;;;;;38.10;26.10;;;9.80;99.20;;;;;;4996587;28;20108;-85
2021/11/12 05:33:35;;;;;;;37.85;26.15;;;9.50;99.20;;;;;;5034976;28;20128;-85
2021/11/12 05:43:45;;;;;;;38.45;26.90;;;9.50;99.40;;;;;;5017133;28;20052;-85
2021/11/12 05:51:55;;;;;;;40.83;26.30;;;9.50;99.50;;;;;;4994881;28;20054;-85
2021/11/12 05:57:05;;;;;;;34.22;26.27;;;9.50;99.50;;;;;;4993811;28;20064;-85
2021/11/12 05:59:31;;;;;;;39.35;27.38;;;9.50;99.50;;;;;;4994648;28;20121;-85
2021/11/12 06:01:59;;;;;;;40.90;28.15;;;9.50;99.40;;;;;;4993310;28;20041;-85
2021/11/12 06:04:27;;;;;;;40.25;27.27;;;9.50;99.40;;;;;;4993601;28;20450;-86
2021/11/12 06:06:53;;;;;;;37.42;25.95;;;9.50;99.50;;;;;;4994524;28;20046;-85
2021/11/12 06:09:19;;;;;;;44.08;29.17;;;9.50;99.50;;;;;;4992914;28;20057;-85
2021/11/12 06:11:44;;;;;;;36.83;26.48;;;9.50;99.40;;;;;;4987832;28;20390;-86
2021/11/12 06:14:11;;;;;;;36.22;27.00;;;9.40;99.40;;;;;;4994598;28;20089;-86
2021/11/12 06:16:36;;;;;;;39.80;27.92;;;9.40;99.50;;;;;;4994072;28;20054;-85
2021/11/12 06:19:03;;;;;;;37.55;26.48;;;9.50;99.50;;;;;;4993899;28;20050;-85
2021/11/12 06:21:29;;;;;;;34.40;25.70;;;9.40;99.40;;;;;;4993732;28;20133;-85
2021/11/12 06:23:56;;;;;;;39.15;27.50;;;9.40;99.70;;;;;;4993020;28;20046;-86
2021/11/12 06:26:22;;;;;;;38.05;26.80;;;9.40;99.50;;;;;;4989907;28;20045;-85
2021/11/12 06:28:49;;;;;;;38.50;27.52;;;9.40;99.50;;;;;;4994333;28;20046;-86
2021/11/12 06:31:15;;;;;;;39.20;26.50;;;9.40;99.50;;;;;;4992212;28;20065;-86
2021/11/12 06:33:41;;;;;;;41.42;28.75;;;9.40;99.50;;;;;;4994550;28;20057;-86
2021/11/12 06:36:07;;;;;;;44.88;30.50;;;9.40;99.40;;;;;;4993518;28;20133;-85
2021/11/12 06:38:33;;;;;;;37.95;26.65;;;9.40;99.30;;;;;;4992764;28;20383;-85
2021/11/12 06:41:01;;;;;;;42.72;28.58;;;9.40;99.30;;;;;;4992922;28;20042;-85
2021/11/12 06:43:40;;;;;;;44.00;28.30;;;9.40;99.70;;;;;;4993250;28;20517;-85
2021/11/12 06:49:19;;;;;;;39.88;27.17;;;9.30;99.20;;;;;;4991496;28;20054;-86
2021/11/12 06:51:41;;;;;;;41.75;28.52;;;9.30;99.30;;;;;;4994411;28;20054;-85
2021/11/12 06:54:07;;;;;;;39.58;28.10;;;9.30;99.30;;;;;;4993271;28;20041;-86
2021/11/12 06:56:32;;;;;;;42.38;28.45;;;9.30;99.30;;;;;;4993250;28;20043;-85
2021/11/12 06:58:58;;;;;;;39.88;27.75;;;9.30;99.40;;;;;;4992233;28;20401;-86
2021/11/12 07:01:25;;;;;;;44.20;29.08;;;9.30;99.40;;;;;;4992203;28;20050;-85
2021/11/12 07:03:51;;;;;;;45.03;28.38;;;9.30;99.40;;;;;;4993289;28;20409;-85
2021/11/12 07:06:17;;;;;;;41.85;28.38;;;9.30;99.30;;;;;;4992125;28;20046;-85
2021/11/12 07:08:43;;;;;;;44.83;29.35;;;9.30;99.40;;;;;;4992472;28;20042;-86
2021/11/12 07:11:09;;;;;;;37.67;26.25;;;9.30;99.40;;;;;;4991669;28;20049;-85
2021/11/12 07:13:36;;;;;;;39.67;27.15;;;9.30;99.40;;;;;;4991509;28;20042;-85
2021/11/12 07:16:02;;;;;;;42.17;27.65;;;9.30;99.40;;;;;;4992796;28;20042;-85
2021/11/12 07:18:29;;;;;;;42.15;27.92;;;9.30;99.50;;;;;;4992202;28;20046;-85
2021/11/12 07:20:55;;;;;;;37.35;26.80;;;9.30;99.50;;;;;;4991757;28;20501;-85
2021/11/12 07:23:23;;;;;;;40.30;27.23;;;9.30;99.50;;;;;;4992182;28;20043;-86
2021/11/12 07:25:51;;;;;;;36.60;26.77;;;9.30;99.50;;;;;;4993262;28;20548;-86
2021/11/12 07:28:18;;;;;;;41.55;27.00;;;9.30;99.50;;;;;;4990577;28;20394;-85
2021/11/12 07:30:44;;;;;;;38.15;26.90;;;9.30;99.90;;;;;;4993035;28;20042;-86
2021/11/12 07:33:12;;;;;;;39.08;25.02;;;9.30;99.50;;;;;;4992954;28;20402;-85
2021/11/12 07:35:47;;;;;;;40.72;26.75;;;9.40;99.40;;;;;;4991672;28;20060;-85
2021/11/12 07:38:15;;;;;;;40.50;26.83;;;9.30;99.40;;;;;;4991758;28;20042;-86
2021/11/12 07:40:59;;;;;;;39.15;27.00;;;9.30;99.30;;;;;;4987227;28;20057;-85
2021/11/12 07:46:14;;;;;;;36.30;24.75;;;9.30;99.40;;;;;;4992575;28;20057;-86
2021/11/12 07:48:40;;;;;;;33.63;24.67;;;9.20;99.20;;;;;;4991905;28;20206;-86
2021/11/12 07:51:07;;;;;;;37.72;25.40;;;9.30;99.30;;;;;;4998585;28;20050;-86
2021/11/12 07:53:34;;;;;;;36.67;24.70;;;9.30;99.30;;;;;;4998643;28;20046;-85
2021/11/12 07:56:00;;;;;;;35.38;25.48;;;9.30;99.30;;;;;;4999311;28;20057;-85
2021/11/12 07:58:25;;;;;;;36.55;25.98;;;9.20;99.40;;;;;;4999174;28;20046;-85
2021/11/12 08:00:51;;;;;;;33.35;23.55;;;9.30;99.50;;;;;;4999134;28;20046;-86
2021/11/12 08:03:18;;;;;;;37.90;24.67;;;9.30;99.40;;;;;;4996733;28;20038;-87
2021/11/12 08:05:48;;;;;;;31.30;23.13;;;9.20;99.40;;;;;;4998336;28;20073;-85
2021/11/12 08:08:16;;;;;;;32.30;22.20;;;9.20;99.30;;;;;;4997455;28;20038;-84
2021/11/12 08:10:50;;;;;;;35.17;22.17;;;9.20;99.10;;;;;;4998347;28;20043;-84
2021/11/12 08:13:44;;;;;;;32.08;22.83;;;9.20;99.30;;;;;;4999519;28;20057;-83
2021/11/12 08:16:23;;;;;;;34.85;22.85;;;9.20;98.90;;;;;;4997978;28;20052;-86
2021/11/12 08:21:20;;;;;;;29.73;20.92;;;9.20;99.00;;;;;;4994522;28;20046;-86
2021/11/12 08:23:57;;;;;;;35.00;21.55;;;9.20;98.80;;;;;;5000922;28;20035;-85
2021/11/12 08:31:54;;;;;;;33.40;23.15;;;9.10;98.80;;;;;;4995285;28;20047;-84
2021/11/12 08:37:16;;;;;;;32.83;23.10;;;9.10;98.90;;;;;;4998416;28;20050;-85
2021/11/12 08:42:12;;;;;;;29.75;20.38;;;9.10;98.90;;;;;;4993931;28;20124;-84
2021/11/12 08:44:43;;;;;;;33.20;22.63;;;9.20;99.00;;;;;;4985539;28;20043;-84
2021/11/12 08:47:14;;;;;;;33.25;22.15;;;9.10;99.00;;;;;;4996611;28;20042;-85
2021/11/12 08:49:41;;;;;;;27.77;20.10;;;9.20;99.10;;;;;;5005614;23;20056;-86
2021/11/12 08:52:11;;;;;;;33.92;22.27;;;9.20;99.10;;;;;;4997671;28;20046;-83
2021/11/12 08:54:40;;;;;;;27.67;19.15;;;9.20;99.20;;;;;;4990378;28;20041;-83
2021/11/12 08:57:11;;;;;;;30.40;20.45;;;9.20;99.00;;;;;;4998445;28;20489;-84
2021/11/12 08:59:40;;;;;;;31.20;20.73;;;9.20;98.90;;;;;;4997201;28;20039;-83
2021/11/12 09:02:11;;;;;;;31.67;20.45;;;9.20;98.70;;;;;;4986998;28;20494;-87
2021/11/12 09:04:38;;;;;;;31.05;20.45;;;9.30;98.70;;;;;;4992291;28;20038;-87
2021/11/12 09:07:04;;;;;;;28.80;19.05;;;9.30;98.80;;;;;;4994803;28;20046;-86
2021/11/12 09:09:30;;;;;;;32.25;21.90;;;9.30;98.50;;;;;;4996002;28;20133;-87
2021/11/12 09:11:56;;;;;;;30.92;22.13;;;9.30;98.60;;;;;;4995653;28;20074;-87
2021/11/12 09:14:23;;;;;;;31.10;19.67;;;9.40;98.90;;;;;;4995445;28;20054;-86
2021/11/12 09:16:49;;;;;;;29.42;20.23;;;9.40;98.80;;;;;;4995805;28;20046;-87
2021/11/12 09:19:15;;;;;;;30.85;20.63;;;9.40;98.60;;;;;;4995351;28;20057;-86
2021/11/12 09:21:43;;;;;;;29.67;19.95;;;9.50;98.60;;;;;;4994777;28;20181;-86
2021/11/12 09:24:10;;;;;;;26.58;19.58;;;9.50;98.80;;;;;;4995373;28;20414;-86
2021/11/12 09:26:36;;;;;;;26.98;18.73;;;9.50;98.80;;;;;;4994626;28;20125;-86
2021/11/12 09:29:10;;;;;;;28.85;17.85;;;9.50;98.50;;;;;;4995433;28;20061;-86
2021/11/12 09:31:36;;;;;;;28.23;18.23;;;9.50;98.00;;;;;;4995797;28;20105;-86
2021/11/12 09:34:05;;;;;;;28.35;19.73;;;9.50;98.00;;;;;;4994901;28;20375;-86
2021/11/12 09:36:31;;;;;;;28.02;19.05;;;9.50;98.10;;;;;;4995476;28;20054;-86
2021/11/12 09:38:57;;;;;;;31.63;20.05;;;9.60;98.00;;;;;;4994790;28;20042;-87
2021/11/12 09:41:23;;;;;;;29.65;20.00;;;9.60;98.00;;;;;;4994654;28;20042;-86
2021/11/12 09:43:50;;;;;;;27.13;18.80;;;9.60;98.10;;;;;;4995025;28;20077;-87
2021/11/12 09:46:16;;;;;;;38.88;19.30;;;9.60;98.10;;;;;;4994793;28;20046;-86
2021/11/12 09:48:43;;;;;;;27.58;18.60;;;9.60;97.90;;;;;;4994203;28;20054;-87
2021/11/12 09:51:10;;;;;;;25.40;18.05;;;9.70;98.00;;;;;;4994669;28;20137;-87
2021/11/12 09:53:37;;;;;;;26.10;18.65;;;9.70;98.20;;;;;;4995124;28;20047;-86
2021/11/12 09:56:03;;;;;;;27.30;17.30;;;9.80;98.10;;;;;;4994308;28;20065;-87
2021/11/12 09:58:30;;;;;;;25.42;17.35;;;9.80;97.80;;;;;;4995086;28;20057;-86
2021/11/12 10:00:58;;;;;;;25.10;17.50;;;9.80;97.50;;;;;;4994821;28;20053;-86
2021/11/12 10:03:31;;;;;;;27.02;17.65;;;9.80;97.30;;;;;;4994168;28;20038;-87
2021/11/12 10:06:00;;;;;;;28.25;18.75;;;9.80;97.30;;;;;;4994898;28;20461;-87
2021/11/12 10:08:31;;;;;;;25.00;17.60;;;9.90;97.60;;;;;;4994957;28;20479;-87
2021/11/12 10:11:01;;;;;;;24.92;15.55;;;9.90;97.70;;;;;;4993641;28;20069;-86
2021/11/12 10:13:32;;;;;;;25.00;15.35;;;9.90;97.40;;;;;;4994206;28;20034;-86
2021/11/12 10:19:04;;;;;;;23.88;16.60;;;10.00;97.20;;;;;;4994659;28;20050;-87
2021/11/12 10:21:33;;;;;;;26.02;17.85;;;10.00;96.90;;;;;;4994598;28;20510;-87
2021/11/12 10:24:01;;;;;;;25.08;17.00;;;10.10;97.20;;;;;;4993601;28;20390;-86
2021/11/12 10:26:33;;;;;;;28.00;18.55;;;10.10;97.40;;;;;;4994614;28;20042;-86
2021/11/12 10:29:04;;;;;;;23.42;15.52;;;10.20;97.80;;;;;;4994099;28;20053;-86
2021/11/12 10:31:44;;;;;;;22.95;15.85;;;10.20;97.50;;;;;;4993534;28;20061;-86
2021/11/12 10:34:13;;;;;;;22.50;15.63;;;10.20;97.40;;;;;;4993865;28;20046;-86
2021/11/12 10:36:51;;;;;;;25.75;17.80;;;10.30;97.30;;;;;;4994131;28;20039;-87
2021/11/12 10:39:25;;;;;;;22.95;15.73;;;10.30;97.70;;;;;;4993383;28;20073;-86
2021/11/12 10:41:50;;;;;;;23.08;16.58;;;10.40;97.80;;;;;;4993879;28;20129;-86
2021/11/12 10:44:16;;;;;;;25.48;16.73;;;10.40;97.80;;;;;;4992886;28;20188;-86
2021/11/12 10:46:43;;;;;;;23.02;16.13;;;10.40;97.70;;;;;;4993950;28;20057;-86
2021/11/12 10:49:26;;;;;;;21.58;15.38;;;10.50;97.70;;;;;;4993340;28;20486;-86
2021/11/12 10:51:55;;;;;;;24.20;15.80;;;10.50;97.30;;;;;;4993136;28;20073;-86
2021/11/12 10:54:59;;;;;;;21.23;15.60;;;10.60;97.20;;;;;;4993787;28;20406;-87
2021/11/12 10:57:46;;;;;;;24.05;16.75;;;10.60;97.30;;;;;;4972026;28;20145;-86
2021/11/12 11:00:28;;;;;;;24.65;15.65;;;10.70;97.50;;;;;;4992627;28;20061;-86
2021/11/12 11:03:03;;;;;;;24.13;15.48;;;10.70;97.10;;;;;;4993999;28;20092;-86
2021/11/12 11:05:40;;;;;;;22.13;15.85;;;10.70;97.10;;;;;;4992938;28;20046;-85
2021/11/12 11:08:13;;;;;;;23.50;16.23;;;10.80;97.10;;;;;;4993669;28;20046;-85
2021/11/12 11:10:41;;;;;;;21.63;16.08;;;10.80;97.00;;;;;;4993912;28;20081;-86
2021/11/12 11:13:26;;;;;;;22.90;16.02;;;10.80;96.80;;;;;;4992543;28;20042;-86
2021/11/12 11:15:55;;;;;;;27.17;17.33;;;10.80;96.70;;;;;;4993813;28;20133;-86
2021/11/12 11:18:46;;;;;;;25.67;16.70;;;10.90;96.50;;;;;;4993738;28;20132;-86
2021/11/12 11:23:49;;;;;;;26.60;17.27;;;10.90;95.90;;;;;;4993202;28;20051;-86
2021/11/12 11:26:18;;;;;;;30.08;18.40;;;10.90;96.00;;;;;;4991951;28;20475;-86
2021/11/12 11:28:44;;;;;;;31.50;19.02;;;10.90;95.70;;;;;;4993696;28;20061;-87
2021/11/12 11:31:12;;;;;;;29.38;18.38;;;10.90;95.40;;;;;;4992938;28;20038;-86
2021/11/12 11:33:41;;;;;;;27.75;19.08;;;10.90;95.70;;;;;;4992156;28;20499;-86
2021/11/12 11:36:07;;;;;;;28.73;19.58;;;11.00;95.80;;;;;;4993003;28;20057;-86
2021/11/12 11:38:36;;;;;;;31.67;19.67;;;11.00;95.90;;;;;;4993426;28;20046;-85
2021/11/12 11:41:20;;;;;;;26.48;18.23;;;11.00;95.70;;;;;;4991168;28;20145;-86
2021/11/12 11:43:46;;;;;;;30.10;19.25;;;11.10;96.00;;;;;;4993054;28;20081;-86
2021/11/12 11:46:22;;;;;;;29.83;20.02;;;11.10;96.00;;;;;;4992944;28;20097;-85
2021/11/12 11:48:49;;;;;;;29.08;19.67;;;11.10;95.60;;;;;;4992009;28;20057;-85
2021/11/12 11:51:33;;;;;;;28.33;19.20;;;11.10;95.90;;;;;;4992476;28;20089;-85
2021/11/12 11:54:10;;;;;;;29.40;19.52;;;11.10;95.50;;;;;;4992723;28;20446;-86
2021/11/12 11:56:38;;;;;;;26.88;19.33;;;11.20;95.70;;;;;;4993274;28;20053;-86
2021/11/12 11:59:17;;;;;;;27.90;20.08;;;11.20;95.90;;;;;;4993120;28;20039;-85
2021/11/12 12:01:48;;;;;;;29.13;20.55;;;11.20;96.20;;;;;;4992501;28;20120;-85
2021/11/12 12:04:14;;;;;;;30.17;21.08;;;11.20;95.60;;;;;;4995369;28;20053;-85
2021/11/12 12:07:03;;;;;;;29.15;21.20;;;11.20;95.70;;;;;;4993928;28;20054;-84
2021/11/12 12:09:48;;;;;;;32.90;21.65;;;11.20;96.00;;;;;;4992495;28;20410;-84
2021/11/12 12:12:29;;;;;;;28.23;20.02;;;11.20;95.60;;;;;;4992152;28;20042;-85
2021/11/12 12:15:17;;;;;;;32.58;22.90;;;11.10;94.70;;;;;;4991780;28;20057;-86
2021/11/12 12:18:07;;;;;;;33.03;21.48;;;11.00;94.90;;;;;;4979872;28;20069;-85
2021/11/12 12:20:51;;;;;;;31.13;22.85;;;11.00;95.00;;;;;;4991189;28;20125;-85
2021/11/12 12:38:25;;;;;;;34.97;23.35;;;11.00;95.50;;;;;;4917644;29;20071;-88
2021/11/12 12:41:28;;;;;;;35.35;24.05;;;11.00;95.10;;;;;;4990365;28;20054;-89
2021/11/12 13:19:34;;;;;;;35.45;26.67;;;10.80;95.50;;;;;;4976856;28;20046;-85
2021/11/12 13:22:15;;;;;;;38.47;26.13;;;10.70;95.40;;;;;;4971287;28;20050;-87
2021/11/12 13:24:39;;;;;;;37.25;27.35;;;10.70;95.80;;;;;;4965656;28;20057;-88
2021/11/12 13:27:07;;;;;;;36.45;27.65;;;10.70;95.70;;;;;;4975162;28;20061;-89
2021/11/12 13:29:36;;;;;;;42.75;28.90;;;10.60;95.90;;;;;;4976032;28;20113;-87
2021/11/12 13:32:05;;;;;;;39.05;28.52;;;10.60;95.60;;;;;;4975634;28;20047;-89
2021/11/12 13:34:40;;;;;;;40.95;29.52;;;10.60;95.90;;;;;;4976548;28;20094;-90
2021/11/12 13:37:27;;;;;;;45.58;28.38;;;10.70;96.20;;;;;;4972921;28;20035;-92
2021/11/12 13:40:07;;;;;;;42.08;29.80;;;10.70;95.70;;;;;;4961594;28;20063;-87
2021/11/12 13:42:47;;;;;;;45.22;30.63;;;10.70;95.70;;;;;;4960692;28;20061;-88
2021/11/12 13:45:18;;;;;;;42.63;29.90;;;10.60;95.60;;;;;;4974609;28;20066;-86
2021/11/12 13:47:44;;;;;;;45.15;32.05;;;10.60;96.00;;;;;;4973179;28;20062;-85
2021/11/12 13:50:11;;;;;;;46.80;32.35;;;10.60;96.30;;;;;;4975557;28;20058;-85
2021/11/12 13:52:42;;;;;;;45.72;31.88;;;10.60;96.00;;;;;;4976078;28;20051;-84
2021/11/12 13:55:12;;;;;;;45.63;31.55;;;10.60;95.80;;;;;;4974724;28;20101;-85
2021/11/12 13:57:39;;;;;;;46.65;32.38;;;10.50;95.90;;;;;;4975109;28;20053;-85
2021/11/12 14:00:06;;;;;;;46.97;33.10;;;10.50;96.10;;;;;;4974662;28;20038;-84
2021/11/12 14:03:04;;;;;;;52.03;34.05;;;10.50;96.20;;;;;;4974384;28;20046;-85
2021/11/12 14:05:30;;;;;;;48.67;33.20;;;10.40;95.50;;;;;;4974364;28;20102;-85
2021/11/12 14:08:15;;;;;;;48.45;34.20;;;10.30;96.10;;;;;;4974229;28;20050;-85
2021/11/12 14:10:46;;;;;;;54.47;33.95;;;10.30;96.00;;;;;;4974553;28;20073;-86
2021/11/12 14:13:16;;;;;;;48.60;34.85;;;10.20;96.10;;;;;;4963725;28;20050;-85
2021/11/12 14:15:57;;;;;;;50.47;34.03;;;10.20;96.40;;;;;;4974519;28;20043;-87
2021/11/12 14:18:33;;;;;;;56.05;35.78;;;10.10;96.20;;;;;;4974459;28;20101;-87
2021/11/12 14:26:39;;;;;;;51.10;36.33;;;10.00;95.90;;;;;;4974612;28;20062;-87
2021/11/12 14:29:11;;;;;;;55.67;37.05;;;9.90;96.10;;;;;;4973197;28;20085;-86
2021/11/12 14:32:01;;;;;;;55.80;36.72;;;9.90;96.10;;;;;;4973926;28;20066;-86
2021/11/12 14:34:41;;;;;;;55.17;36.85;;;9.80;96.60;;;;;;4972349;28;20042;-86
2021/11/12 14:37:25;;;;;;;53.72;36.53;;;9.80;96.70;;;;;;4973261;28;20046;-86
2021/11/12 14:39:57;;;;;;;57.25;38.25;;;9.80;96.20;;;;;;4974055;28;20051;-86
2021/11/12 14:45:27;;;;;;;55.38;38.00;;;9.70;96.40;;;;;;4969807;28;20053;-86
2021/11/12 14:50:32;;;;;;;55.50;37.92;;;9.70;96.50;;;;;;4972803;28;20050;-86
2021/11/12 14:58:47;;;;;;;52.97;38.03;;;9.70;96.50;;;;;;4972573;28;20055;-86
2021/11/12 15:01:16;;;;;;;55.58;38.38;;;9.70;96.50;;;;;;4973377;28;20057;-86
2021/11/12 15:03:43;;;;;;;52.63;37.50;;;9.70;96.40;;;;;;4974111;28;20044;-87
2021/11/12 15:06:10;;;;;;;54.83;38.72;;;9.60;96.60;;;;;;4973769;28;20054;-85
2021/11/12 15:11:15;;;;;;;55.47;38.92;;;9.50;96.50;;;;;;4954179;29;20105;-82
2021/11/12 15:13:42;;;;;;;55.95;39.55;;;9.50;96.80;;;;;;4954569;29;20126;-85
2021/11/12 15:16:15;;;;;;;56.92;39.75;;;9.50;96.80;;;;;;4954458;29;20047;-85
2021/11/12 15:18:42;;;;;;;57.35;40.35;;;9.50;96.90;;;;;;4954096;29;20047;-84
2021/11/12 15:21:14;;;;;;;60.53;40.45;;;9.50;97.00;;;;;;4954322;29;20039;-84
2021/11/12 15:26:17;;;;;;;53.83;37.05;;;9.50;97.20;;;;;;4953812;28;20051;-84
2021/11/12 15:31:18;;;;;;;60.25;40.47;;;9.30;96.40;;;;;;4954359;29;20047;-84
2021/11/12 15:33:46;;;;;;;60.80;41.30;;;9.30;96.20;;;;;;4953872;28;20043;-85
2021/11/12 15:36:15;;;;;;;58.88;40.85;;;9.30;96.60;;;;;;4954354;29;20039;-85
2021/11/12 15:44:00;;;;;;;57.72;40.28;;;9.20;97.10;;;;;;4954509;29;20079;-84
2021/11/12 15:46:29;;;;;;;;;;;9.20;96.90;;;;;;4954364;28;20066;-85
2021/11/12 15:48:55;;;;;;;54.83;37.53;;;9.10;95.70;;;;;;4954215;29;20375;-84
2021/11/12 15:51:26;;;;;;;59.17;40.35;;;9.00;96.60;;;;;;4954238;28;20134;-84
2021/11/12 15:54:15;;;;;;;58.70;40.10;;;9.00;96.60;;;;;;4953536;28;20179;-85
2021/11/12 15:57:12;;;;;;;57.13;39.50;;;9.00;96.50;;;;;;4954360;29;20050;-84
2021/11/12 16:05:53;;;;;;;65.20;41.40;;;8.90;96.50;;;;;;4954165;29;20055;-84
2021/11/12 16:08:33;;;;;;;60.45;40.75;;;8.90;96.90;;;;;;4953263;29;20058;-84
2021/11/12 16:14:12;;;;;;;59.85;40.95;;;8.90;97.10;;;;;;4935147;29;20051;-84
2021/11/12 16:19:27;;;;;;;58.60;39.42;;;8.90;97.20;;;;;;4957992;29;20142;-84
2021/11/12 16:27:12;;;;;;;57.00;40.55;;;8.90;97.50;;;;;;4958599;28;20483;-84
2021/11/12 16:29:54;;;;;;;57.65;40.30;;;8.90;97.60;;;;;;4960765;28;20130;-86
2021/11/12 16:32:37;;;;;;;56.15;39.95;;;8.90;97.30;;;;;;4976333;28;20482;-87
2021/11/12 16:35:04;;;;;;;58.60;40.22;;;8.80;97.00;;;;;;4972635;28;20129;-86
2021/11/12 16:37:31;;;;;;;60.20;39.38;;;8.80;97.10;;;;;;4976049;28;20054;-87
2021/11/12 16:40:45;;;;;;;56.58;38.90;;;8.80;96.90;;;;;;4976738;28;20495;-86
2021/11/12 16:53:09;;;;;;;59.55;39.17;;;8.80;97.40;;;;;;4998335;28;20034;-87
2021/11/12 16:58:56;;;;;;;55.70;38.88;;;8.70;97.30;;;;;;4963483;28;20042;-87
2021/11/12 17:01:54;;;;;;;57.08;37.78;;;8.70;97.50;;;;;;4996792;28;20084;-85
2021/11/12 17:04:35;;;;;;;48.63;34.72;;;8.70;97.30;;;;;;4994151;28;20056;-88
2021/11/12 17:07:17;;;;;;;54.85;36.55;;;8.70;97.10;;;;;;4996213;28;20061;-85
2021/11/12 17:09:53;;;;;;;52.67;34.50;;;8.70;97.10;;;;;;4983959;28;20038;-88
2021/11/12 17:12:42;;;;;;;50.80;34.45;;;8.60;96.80;;;;;;4997892;28;20096;-87
2021/11/12 17:15:26;;;;;;;51.95;34.22;;;8.60;96.60;;;;;;4998801;28;20053;-86
2021/11/12 17:20:57;;;;;;;50.00;32.55;;;8.40;96.40;;;;;;4999335;28;20057;-86
2021/11/12 17:48:04;;;;;;;47.08;30.67;;;8.00;96.40;;;;;;4977916;28;20055;-86
2021/11/12 18:06:56;;;;;;;43.97;28.00;;;7.90;96.40;;;;;;4975217;28;20035;-89
2021/11/12 18:18:12;;;;;;;40.33;27.88;;;7.80;96.50;;;;;;4965940;28;20077;-88
2021/11/12 21:48:44;;;;;;;24.95;18.25;;;8.30;98.30;;;;;;4978906;28;20038;-86
2021/11/12 21:51:17;;;;;;;24.33;18.38;;;8.30;98.30;;;;;;4997653;28;20053;-86
2021/11/12 21:53:44;;;;;;;;;;;8.30;98.00;;;;;;4991328;28;20521;-86
2021/11/12 21:56:10;;;;;;;27.85;18.10;;;8.30;98.00;;;;;;4995378;28;19922;-87
2021/11/12 21:58:37;;;;;;;29.27;19.83;;;8.30;98.30;;;;;;4976886;28;20058;-87
2021/11/12 22:01:05;;;;;;;24.88;18.25;;;8.30;98.40;;;;;;4996632;28;20042;-86
2021/11/12 22:03:31;;;;;;;24.67;18.25;;;8.40;98.40;;;;;;4997483;28;20047;-86